Latest Weather Observations for Jervis Bay Airfield

IDN60801

Issued at 2:52 pm EST Monday 23 September 2019 (issued every 10 minutes, with the page automatically refreshed every 10 minutes)

About weather observations | Map of weather stations | Latest weather observations for NSW | Other Formats
Station Details ID: 068264 Name: JERVIS BAY AIRFIELD AWS Lat: -35.14 Lon: 150.70 Height: 57.18 m
Data from the previous 72 hours. | See also: Recent months at Jervis Bay Airfield
Date/Time
EST
Temp
°C
App
Temp
°C
Dew
Point
°C
Rel
Hum
%
Delta-T
°C
Wind Press
QNH
hPa
Press
MSL
hPa
Rain since
9am
mm
Dir  Spd
km/h
Gust
km/h
Spd
kts
Gust
kts
23/02:30pm 17.4 10.8 1.8 35 7.0 WNW 26 37 14 20 1020.1 1020.0 0.0
23/02:00pm 17.8 11.6 2.2 35 7.1 W 24 43 13 23 1020.2 1020.1 0.0
23/01:30pm 16.1 8.5 2.9 41 6.0 WSW 32 48 17 26 1020.4 1020.3 0.0
23/01:10pm 16.9 9.9 2.1 37 6.7 W 28 54 15 29 1020.0 1019.9 0.0
23/01:00pm 18.5 11.6 2.4 34 7.4 W 28 39 15 21 1019.8 1019.7 0.0
23/12:54pm 19.4 12.5 2.3 32 7.9 W 28 44 15 24 1019.7 1019.6 0.0
23/12:30pm 18.0 12.8 3.5 38 6.8 SW 20 28 11 15 1020.1 1020.0 0.0
23/12:00pm 16.9 13.3 4.9 45 5.7 SSW 13 20 7 11 1020.4 1020.3 0.0
23/11:30am 17.3 12.1 2.5 37 6.7 SW 19 26 10 14 1020.8 1020.7 0.0
23/11:00am 17.4 12.2 3.7 40 6.4 SW 20 32 11 17 1020.9 1020.8 0.0
23/10:30am 17.4 11.3 3.0 38 6.6 SW 24 39 13 21 1021.3 1021.2 0.0
23/10:00am 16.8 11.1 2.8 39 6.4 SW 22 32 12 17 1021.6 1021.5 0.0
23/09:30am 16.8 11.5 2.8 39 6.4 W 20 35 11 19 1021.8 1021.7 0.0
23/09:00am 15.2 11.2 5.1 51 4.8 W 15 20 8 11 1022.1 1022.0 0.0
23/08:30am 13.5 9.3 5.9 60 3.6 WNW 17 22 9 12 1022.4 1022.3 0.0
23/08:00am 13.0 9.2 5.9 62 3.3 WNW 15 20 8 11 1022.4 1022.3 0.0
23/07:30am 11.5 8.9 6.0 69 2.6 WNW 9 13 5 7 1022.2 1022.1 0.0
23/07:00am 10.1 7.7 7.2 82 1.4 W 9 13 5 7 1022.2 1022.1 0.0
23/06:30am 8.8 6.6 7.7 93 0.5 W 9 11 5 6 1022.1 1022.0 0.0
23/06:00am 8.6 6.5 8.2 97 0.2 W 9 11 5 6 1021.6 1021.5 0.0
23/05:30am 8.8 6.3 8.4 97 0.2 W 11 11 6 6 1021.7 1021.6 0.0
23/05:00am 9.1 6.7 8.6 97 0.2 WSW 11 13 6 7 1021.6 1021.5 0.0
23/04:30am 9.3 7.7 8.8 97 0.2 WSW 7 9 4 5 1021.3 1021.2 0.0
23/04:00am 9.7 7.8 9.2 97 0.2 WSW 9 11 5 6 1021.7 1021.6 0.0
23/03:30am 10.1 8.7 9.6 97 0.3 WSW 7 9 4 5 1021.7 1021.6 0.0
23/03:00am 10.6 9.0 10.1 97 0.3 WSW 9 11 5 6 1021.9 1021.8 0.0
23/02:51am 10.8 8.8 10.3 97 0.3 W 11 13 6 7 1022.0 1021.9 0.0
23/02:30am 11.3 9.1 10.8 97 0.3 WSW 13 17 7 9 1022.1 1022.0 0.0
23/02:00am 12.4 10.1 11.9 97 0.3 WSW 15 20 8 11 1022.3 1022.2 0.0
23/01:30am 12.6 10.0 12.1 97 0.3 SW 17 20 9 11 1022.6 1022.5 0.0
23/01:06am 13.1 10.7 12.5 96 0.3 SW 17 26 9 14 1022.5 1022.4 0.0
23/01:00am 13.5 11.2 12.9 96 0.3 SW 17 26 9 14 1022.6 1022.5 0.0
23/12:30am 13.5 10.5 12.6 94 0.5 SW 20 28 11 15 1022.6 1022.5 0.0
23/12:00am 12.2 8.9 9.4 83 1.4 WSW 17 22 9 12 1022.7 1022.6 0.0
 
Date/Time
EST
Temp
°C
App
Temp
°C
Dew
Point
°C
Rel
Hum
%
Delta-T
°C
Wind Press
QNH
hPa
Press
MSL
hPa
Rain since
9am
mm
Dir  Spd
km/h
Gust
km/h
Spd
kts
Gust
kts
22/11:30pm 11.9 10.7 11.6 98 0.2 W 9 9 5 5 1022.5 1022.4 0.0
22/11:00pm 12.0 11.2 11.7 98 0.2 W 7 9 4 5 1022.5 1022.4 0.0
22/10:30pm 12.1 11.3 11.8 98 0.2 WNW 7 9 4 5 1022.5 1022.4 0.0
22/10:00pm 12.5 12.0 12.2 98 0.2 W 6 9 3 5 1022.6 1022.5 0.0
22/09:30pm 12.7 12.1 12.2 97 0.3 WNW 7 11 4 6 1022.7 1022.6 0.0
22/09:00pm 12.9 12.3 12.4 97 0.3 SW 7 15 4 8 1022.7 1022.6 0.0
22/08:30pm 13.2 13.9 12.3 94 0.5 CALM 0 0 0 0 1022.6 1022.5 0.0
22/08:00pm 14.1 15.1 13.1 94 0.5 CALM 0 6 0 3 1022.6 1022.5 0.0
22/07:30pm 14.2 13.9 13.4 95 0.4 SW 7 9 4 5 1022.7 1022.6 0.0
22/07:00pm 14.0 14.8 12.7 92 0.7 CALM 0 0 0 0 1022.2 1022.1 0.0
22/06:30pm 14.7 14.6 13.2 91 0.8 NE 6 9 3 5 1021.8 1021.7 0.0
22/06:00pm 14.9 14.1 12.9 88 1.1 NE 9 11 5 6 1021.6 1021.5 0.0
22/05:30pm 15.9 15.4 12.8 82 1.7 ENE 7 11 4 6 1021.5 1021.4 0.0
22/05:00pm 16.4 15.1 12.4 77 2.2 ENE 11 17 6 9 1021.1 1021.0 0.0
22/04:30pm 17.0 15.3 12.5 75 2.5 ENE 13 20 7 11 1020.9 1020.8 0.0
22/04:00pm 17.3 14.7 13.2 77 2.3 E 19 24 10 13 1020.5 1020.4 0.0
22/03:30pm 17.4 13.8 11.9 70 3.0 E 22 30 12 16 1020.3 1020.2 0.0
22/03:00pm 18.0 14.6 12.5 70 3.1 E 22 37 12 20 1019.9 1019.8 0.0
22/02:30pm 18.3 14.6 12.7 70 3.1 E 24 32 13 17 1019.7 1019.6 0.0
22/02:00pm 18.4 14.3 11.5 64 3.8 ESE 24 28 13 15 1019.9 1019.8 0.0
22/01:30pm 18.6 15.0 11.7 64 3.8 SE 22 30 12 16 1020.0 1019.9 0.0
22/01:00pm 18.5 14.3 13.4 72 2.9 SE 28 33 15 18 1020.1 1020.0 0.0
22/12:30pm 18.4 14.5 13.3 72 2.9 SE 26 33 14 18 1020.5 1020.4 0.0
22/12:00pm 18.8 15.5 12.8 68 3.4 SE 22 30 12 16 1020.6 1020.5 0.0
22/11:30am 18.8 14.7 6.0 43 6.3 SSE 17 22 9 12 1020.6 1020.5 0.0
22/11:00am 18.7 14.9 4.1 38 6.9 S 13 20 7 11 1020.9 1020.8 0.0
22/10:30am 18.5 14.7 5.7 43 6.3 SSW 15 24 8 13 1021.2 1021.1 0.0
22/10:00am 18.0 13.2 4.9 42 6.3 SSW 19 28 10 15 1021.4 1021.3 0.0
22/09:30am 17.9 13.3 5.5 44 6.0 SW 19 28 10 15 1021.5 1021.4 0.0
22/09:00am 17.1 13.2 5.4 46 5.6 WSW 15 19 8 10 1021.6 1021.5 1.2
22/08:30am 17.6 12.7 5.2 44 6.0 W 20 30 11 16 1021.3 1021.2 1.2
22/08:00am 15.7 11.3 6.4 54 4.5 W 19 28 10 15 1021.0 1020.9 1.2
22/07:30am 14.9 11.9 7.9 63 3.5 W 13 20 7 11 1020.7 1020.6 1.2
22/07:00am 15.2 12.2 7.7 61 3.7 W 13 19 7 10 1020.3 1020.2 1.2
22/06:30am 15.6 11.9 7.9 60 3.9 W 17 22 9 12 1019.6 1019.5 1.2
22/06:00am 15.6 12.0 8.4 62 3.6 W 17 28 9 15 1019.3 1019.2 1.2
22/05:30am 15.7 12.2 8.9 64 3.5 WNW 17 24 9 13 1018.7 1018.7 1.2
22/05:00am 15.8 12.5 9.5 66 3.3 WNW 17 22 9 12 1017.9 1017.9 1.2
22/04:30am 15.5 12.5 10.7 73 2.5 WNW 17 22 9 12 1017.4 1017.4 1.2
22/04:00am 15.7 12.7 10.7 72 2.7 WNW 17 20 9 11 1017.4 1017.4 1.2
22/03:30am 15.8 13.3 11.2 74 2.5 W 15 20 8 11 1017.2 1017.2 1.2
22/03:00am 16.1 13.8 11.7 75 2.4 W 15 24 8 13 1017.0 1017.0 1.2
22/02:30am 16.6 14.4 12.2 75 2.4 W 15 20 8 11 1017.0 1017.0 1.2
22/02:00am 16.4 14.9 13.1 81 1.8 WNW 13 17 7 9 1016.9 1016.9 1.2
22/01:30am 15.9 14.6 13.6 86 1.3 W 13 17 7 9 1017.0 1017.0 1.2
22/01:00am 16.1 15.8 14.3 89 1.0 W 9 13 5 7 1017.0 1017.0 1.2
22/12:30am 15.7 15.7 15.2 97 0.3 W 9 11 5 6 1016.9 1016.9 1.2
22/12:00am 16.5 17.4 16.2 98 0.2 ENE 6 9 3 5 1017.0 1017.0 1.2
 
Date/Time
EST
Temp
°C
App
Temp
°C
Dew
Point
°C
Rel
Hum
%
Delta-T
°C
Wind Press
QNH
hPa
Press
MSL
hPa
Rain since
9am
mm
Dir  Spd
km/h
Gust
km/h
Spd
kts
Gust
kts
21/11:30pm 16.9 17.0 16.4 97 0.3 NE 11 13 6 7 1016.9 1016.9 1.2
21/11:00pm 17.3 16.5 16.2 93 0.7 NE 15 19 8 10 1016.2 1016.2 1.2
21/10:30pm 17.7 16.2 16.2 91 0.9 NNE 19 28 10 15 1016.2 1016.2 1.2
21/10:00pm 17.4 16.0 16.6 95 0.5 NNE 19 26 10 14 1016.2 1016.2 1.2
21/09:30pm 17.7 15.5 16.9 95 0.5 NNE 24 39 13 21 1016.0 1016.0 1.2
21/09:00pm 18.1 14.8 16.1 88 1.2 NNE 28 37 15 20 1016.2 1016.2 1.2
21/08:30pm 17.7 15.3 16.4 92 0.8 NNE 24 33 13 18 1016.5 1016.5 1.2
21/08:00pm 17.8 15.1 16.7 93 0.7 NNE 26 33 14 18 1016.5 1016.5 1.2
21/07:30pm 17.6 14.8 16.3 92 0.8 NE 26 33 14 18 1016.2 1016.2 1.2
21/07:00pm 17.5 15.5 16.5 94 0.6 NE 22 30 12 16 1016.0 1016.0 1.2
21/06:30pm 17.3 15.1 17.0 98 0.2 NNE 24 33 13 18 1015.8 1015.8 1.2
21/06:00pm 17.4 14.1 17.1 98 0.2 NE 30 43 16 23 1015.6 1015.6 1.2
21/05:30pm 17.4 14.5 17.1 98 0.2 NNE 28 43 15 23 1015.3 1015.3 1.2
21/05:00pm 17.4 14.9 17.1 98 0.2 NE 26 33 14 18 1015.7 1015.7 1.2
21/04:30pm 17.3 16.5 17.0 98 0.2 NNE 17 22 9 12 1016.5 1016.5 1.2
21/04:00pm 17.4 16.0 17.1 98 0.2 NNE 20 26 11 14 1016.9 1016.9 1.2
21/03:30pm 17.5 17.1 17.2 98 0.2 NE 15 22 8 12 1016.9 1016.9 1.2
21/03:00pm 17.7 15.5 16.9 95 0.5 NNE 24 37 13 20 1016.8 1016.8 0.0
21/02:30pm 18.2 15.6 16.9 92 0.8 NNE 26 41 14 22 1016.0 1016.0 0.0
21/02:00pm 18.7 14.5 16.3 86 1.4 NNE 33 48 18 26 1015.7 1015.7 0.0
21/01:44pm 19.2 15.1 16.4 84 1.7 NNE 33 54 18 29 1015.7 1015.7 0.0
21/01:30pm 18.7 16.8 16.7 88 1.2 NNE 22 33 12 18 1015.9 1015.9 0.0
21/01:00pm 19.4 16.5 16.2 82 1.9 NNE 26 39 14 21 1016.0 1016.0 0.0
21/12:30pm 19.0 15.3 15.9 82 1.8 NNE 30 44 16 24 1016.1 1016.1 0.0
21/12:00pm 19.5 15.9 16.3 82 1.9 NNE 30 48 16 26 1016.5 1016.5 0.0
21/11:33am 19.9 16.6 16.9 83 1.8 NNE 30 48 16 26 1017.2 1017.2 0.0
21/11:30am 19.6 15.7 16.4 82 1.9 NNE 32 48 17 26 1017.2 1017.2 0.0
21/11:00am 19.3 15.1 16.2 82 1.9 NNE 33 46 18 25 1017.9 1017.9 0.0
21/10:38am 19.1 14.9 16.1 83 1.8 NNE 33 52 18 28 1018.4 1018.4 0.0
21/10:30am 18.5 14.3 15.6 83 1.7 NNE 32 44 17 24 1018.3 1018.3 0.0
21/10:00am 18.0 14.5 15.6 86 1.4 NNE 28 41 15 22 1019.0 1019.0 0.0
21/09:30am 18.6 14.5 16.0 85 1.5 NNE 32 44 17 24 1019.5 1019.4 0.0
21/09:00am 18.1 13.7 15.7 86 1.4 NNE 33 46 18 25 1019.6 1019.5 0.0
21/08:30am 17.8 14.4 15.8 88 1.2 NNE 28 35 15 19 1019.9 1019.8 0.0
21/08:00am 17.5 14.1 15.7 89 1.1 NNE 28 39 15 21 1020.0 1019.9 0.0
21/07:30am 17.4 14.2 15.4 88 1.2 NNE 26 37 14 20 1020.1 1020.0 0.0
21/07:00am 17.0 13.5 15.5 91 0.9 NNE 28 39 15 21 1019.8 1019.7 0.0
21/06:30am 16.8 13.4 15.8 94 0.6 NNE 28 39 15 21 1019.7 1019.6 0.0
21/06:00am 16.9 12.9 16.1 95 0.5 NNE 32 44 17 24 1019.4 1019.3 0.0
21/05:30am 17.0 12.5 16.5 97 0.3 NNE 35 46 19 25 1019.5 1019.4 0.0
21/05:06am 17.0 12.9 16.5 97 0.3 NNE 33 43 18 23 1019.5 1019.4 0.0
21/05:00am 17.1 13.1 16.6 97 0.3 NNE 33 46 18 25 1019.5 1019.4 0.0
21/04:30am 17.2 12.8 16.7 97 0.3 NNE 35 48 19 26 1019.4 1019.3 0.0
21/04:00am 17.1 12.8 16.8 98 0.2 NNE 35 46 19 25 1019.2 1019.1 0.0
21/03:30am 17.2 12.9 16.9 98 0.2 NNE 35 46 19 25 1019.7 1019.6 0.0
21/03:00am 17.2 13.2 16.7 97 0.3 NNE 33 43 18 23 1020.1 1020.0 0.0
21/02:41am 17.3 13.3 16.8 97 0.3 NNE 33 43 18 23 1020.3 1020.2 0.0
21/02:30am 17.3 12.9 16.7 96 0.4 NNE 35 52 19 28 1020.3 1020.2 0.0
21/02:22am 17.3 12.5 16.7 96 0.4 NNE 37 52 20 28 1020.2 1020.1 0.0
21/02:00am 17.3 13.0 16.8 97 0.3 NNE 35 48 19 26 1020.7 1020.6 0.0
21/01:42am 17.3 13.9 16.8 97 0.3 NNE 30 44 16 24 1021.0 1020.9 0.0
21/01:30am 17.4 13.4 16.8 96 0.4 NNE 33 52 18 28 1021.2 1021.1 0.0
21/01:21am 17.4 13.4 16.8 96 0.4 NNE 33 52 18 28 1021.3 1021.2 0.0
21/01:00am 17.4 13.0 16.6 95 0.5 NNE 35 50 19 27 1021.4 1021.3 0.0
21/12:42am 17.5 13.4 16.4 93 0.7 NNE 33 48 18 26 1021.7 1021.6 0.0
21/12:30am 17.4 13.6 16.6 95 0.5 NNE 32 50 17 27 1022.0 1021.9 0.0
21/12:26am 17.4 13.6 16.6 95 0.5 NNE 32 50 17 27 1022.0 1021.9 0.0
21/12:00am 17.3 14.3 16.8 97 0.3 NNE 28 39 15 21 1022.3 1022.2 0.0
 
Date/Time
EST
Temp
°C
App
Temp
°C
Dew
Point
°C
Rel
Hum
%
Delta-T
°C
Wind Press
QNH
hPa
Press
MSL
hPa
Rain since
9am
mm
Dir  Spd
km/h
Gust
km/h
Spd
kts
Gust
kts
20/11:47pm 17.3 14.3 16.7 96 0.4 NNE 28 46 15 25 1022.5 1022.4 0.0
20/11:30pm 17.2 13.7 16.6 96 0.4 NNE 30 46 16 25 1022.5 1022.4 0.0
20/11:02pm 17.0 13.1 16.4 96 0.4 NNE 32 44 17 24 1022.5 1022.4 0.0
20/11:00pm 17.1 13.2 16.5 96 0.4 NNE 32 44 17 24 1022.5 1022.4 0.0
20/10:38pm 17.2 13.7 16.6 96 0.4 NNE 30 43 16 23 1022.7 1022.6 0.0
20/10:30pm 17.3 13.5 16.7 96 0.4 NNE 32 43 17 23 1022.8 1022.7 0.0
20/10:01pm 17.2 14.1 16.6 96 0.4 NNE 28 48 15 26 1023.0 1022.9 0.0
20/10:00pm 17.2 14.1 16.6 96 0.4 NNE 28 48 15 26 1023.0 1022.9 0.0
20/09:59pm 17.2 14.1 16.6 96 0.4 NNE 28 48 15 26 1023.0 1022.9 0.0
20/09:30pm 17.2 14.2 16.7 97 0.3 NNE 28 43 15 23 1023.1 1023.0 0.0
20/09:00pm 17.3 14.3 16.7 96 0.4 NNE 28 43 15 23 1023.5 1023.4 0.0
20/08:30pm 17.4 14.7 16.6 95 0.5 NNE 26 39 14 21 1023.3 1023.2 0.0
20/08:00pm 17.3 14.9 16.5 95 0.5 NNE 24 39 13 21 1023.2 1023.1 0.0
20/07:30pm 17.2 14.1 16.6 96 0.4 NNE 28 39 15 21 1023.0 1022.9 0.0
20/07:00pm 17.3 14.9 16.5 95 0.5 NNE 24 35 13 19 1022.9 1022.8 0.0
20/06:57pm 17.3 14.6 16.5 95 0.5 NNE 26 35 14 19 1022.9 1022.8 0.0
20/06:30pm 17.3 14.5 16.3 94 0.6 NNE 26 37 14 20 1022.8 1022.7 0.0
20/06:09pm 17.3 14.4 16.2 93 0.7 NNE 26 39 14 21 1022.8 1022.7 0.0
20/06:00pm 17.2 13.9 16.1 93 0.6 NNE 28 37 15 20 1022.8 1022.7 0.0
20/05:30pm 17.6 14.5 16.5 93 0.7 NNE 28 39 15 21 1022.5 1022.4 0.0
20/05:07pm 17.7 14.5 16.2 91 0.9 NNE 28 39 15 21 1022.5 1022.4 0.0
20/05:00pm 17.8 14.5 16.1 90 1.0 NNE 28 39 15 21 1022.4 1022.3 0.0
20/04:33pm 18.0 14.7 16.0 88 1.2 NNE 28 46 15 25 1022.3 1022.2 0.0
20/04:30pm 18.1 14.8 16.1 88 1.2 NNE 28 39 15 21 1022.3 1022.2 0.0
20/04:00pm 18.6 14.6 16.2 86 1.4 NNE 32 44 17 24 1022.3 1022.2 0.0
20/03:33pm 18.8 14.7 15.9 83 1.7 NNE 32 46 17 25 1022.1 1022.0 0.0
20/03:30pm 19.0 15.0 16.2 84 1.7 NNE 32 46 17 25 1022.1 1022.0 0.0
20/03:20pm 18.8 14.8 16.2 85 1.6 NNE 32 44 17 24 1022.2 1022.1 0.0
20/03:00pm 19.2 15.7 16.4 84 1.7 NNE 30 43 16 23 1022.3 1022.2 0.0

Other formats

Comma delimited format used in spreadsheet applications
http://www.bom.gov.au/fwo/IDN60801/IDN60801.94751.axf

JavaScript Object Notation format (JSON) in row-major order
http://www.bom.gov.au/fwo/IDN60801/IDN60801.94751.json

Data quality

Most of these data are generated automatically and are frequently updated. Quality checks on data are not normally performed. It is possible for incorrect values to appear. Refer to information at About Latest Weather Observations and please check the disclaimer before using these data.